createdAt,value
2019-06-01T00:00:44.609Z,6.00
2019-06-01T00:01:44.761Z,5.40
2019-06-01T00:02:51.216Z,5.20
2019-06-01T00:03:46.468Z,6.30
2019-06-01T00:04:45.262Z,5.00
2019-06-01T00:05:44.639Z,5.20
2019-06-01T00:06:44.864Z,5.10
2019-06-01T00:07:44.932Z,5.50
2019-06-01T00:08:45.075Z,4.90
2019-06-01T00:09:45.171Z,5.20
2019-06-01T00:10:45.190Z,4.90
2019-06-01T00:11:45.564Z,4.80
2019-06-01T00:12:45.335Z,5.90
2019-06-01T00:13:45.597Z,5.50
2019-06-01T00:14:45.655Z,5.50
2019-06-01T00:15:44.451Z,5.50
2019-06-01T00:16:44.410Z,4.90
2019-06-01T00:17:44.418Z,5.40
2019-06-01T00:18:44.499Z,5.00
2019-06-01T00:19:44.398Z,5.80
2019-06-01T00:20:44.420Z,5.70
2019-06-01T00:21:45.431Z,5.10
2019-06-01T00:22:45.473Z,5.20
2019-06-01T00:23:44.471Z,5.00
2019-06-01T00:24:44.349Z,6.20
2019-06-01T00:25:44.627Z,7.40
2019-06-01T00:26:45.747Z,6.70
2019-06-01T00:27:44.720Z,5.70
2019-06-01T00:28:45.688Z,4.90
2019-06-01T00:29:44.715Z,4.90
2019-06-01T00:30:44.243Z,5.10
2019-06-01T00:31:45.289Z,5.30
2019-06-01T00:32:45.189Z,5.60
2019-06-01T00:33:45.461Z,5.40
2019-06-01T00:34:44.239Z,5.60
2019-06-01T00:35:45.322Z,5.00
2019-06-01T00:36:45.518Z,6.10
2019-06-01T00:37:45.534Z,5.70
2019-06-01T00:38:44.219Z,5.50
2019-06-01T00:39:44.211Z,5.60
2019-06-01T00:40:44.170Z,6.20
2019-06-01T00:41:44.160Z,6.40
2019-06-01T00:42:44.166Z,5.00
2019-06-01T00:43:44.234Z,5.00
2019-06-01T00:44:44.332Z,4.50
2019-06-01T00:45:44.476Z,5.60
2019-06-01T00:46:44.475Z,7.50
2019-06-01T00:47:44.754Z,6.70
2019-06-01T00:48:44.054Z,5.60
2019-06-01T00:49:44.695Z,5.20
2019-06-01T00:50:44.902Z,7.00
2019-06-01T00:51:45.046Z,6.00
2019-06-01T00:52:45.068Z,5.90
2019-06-01T00:53:45.250Z,5.40
2019-06-01T00:54:45.178Z,6.30
2019-06-01T00:55:45.860Z,5.70
2019-06-01T00:56:45.469Z,6.50
2019-06-01T00:57:43.993Z,6.50
2019-06-01T00:58:43.931Z,6.00
2019-06-01T00:59:43.963Z,6.80
2019-06-01T01:00:45.687Z,6.30
2019-06-01T01:01:43.971Z,7.40
2019-06-01T01:02:44.056Z,6.80
2019-06-01T01:03:44.029Z,6.40
2019-06-01T01:04:44.306Z,6.10
2019-06-01T01:05:44.616Z,6.60
2019-06-01T01:06:44.433Z,7.70
2019-06-01T01:07:44.525Z,7.00
2019-06-01T01:08:44.786Z,6.10
2019-06-01T01:09:46.807Z,6.10
2019-06-01T01:10:44.824Z,6.50
2019-06-01T01:11:44.829Z,6.50
2019-06-01T01:12:44.930Z,6.70
2019-06-01T01:13:45.552Z,7.50
2019-06-01T01:14:45.069Z,6.30
2019-06-01T01:15:43.776Z,6.40
2019-06-01T01:16:43.781Z,6.90
2019-06-01T01:17:43.773Z,6.70
2019-06-01T01:18:43.754Z,5.90
2019-06-01T01:19:43.743Z,8.60
2019-06-01T01:20:43.747Z,6.90
2019-06-01T01:21:43.804Z,8.00
2019-06-01T01:22:43.697Z,7.20
2019-06-01T01:23:43.704Z,6.80
2019-06-01T01:24:43.693Z,7.70
2019-06-01T01:25:43.804Z,7.80
2019-06-01T01:26:43.673Z,8.50
2019-06-01T01:27:43.655Z,7.50
2019-06-01T01:28:43.656Z,6.80
2019-06-01T01:29:43.656Z,9.20
2019-06-01T01:30:58.007Z,8.30
2019-06-01T01:31:44.633Z,8.50
2019-06-01T01:32:43.624Z,7.50
2019-06-01T01:33:43.598Z,6.90
2019-06-01T01:34:43.573Z,6.90
2019-06-01T01:35:43.582Z,6.90
2019-06-01T01:36:43.565Z,7.10
2019-06-01T01:37:43.687Z,7.90
2019-06-01T01:38:43.545Z,8.10
2019-06-01T01:39:43.526Z,8.30
2019-06-01T01:40:43.523Z,8.10
2019-06-01T01:41:43.624Z,8.40
2019-06-01T01:42:43.496Z,8.30
2019-06-01T01:43:43.486Z,9.10
2019-06-01T01:44:43.489Z,8.70
2019-06-01T01:45:43.424Z,10.00
2019-06-01T01:46:43.550Z,8.40
2019-06-01T01:47:43.452Z,9.70
2019-06-01T01:48:43.386Z,8.80
2019-06-01T01:49:43.416Z,9.50
2019-06-01T01:50:43.416Z,9.50
2019-06-01T01:51:43.396Z,8.30
2019-06-01T01:52:43.521Z,8.60
2019-06-01T01:53:43.391Z,8.80
2019-06-01T01:54:43.370Z,8.20
2019-06-01T01:55:43.362Z,10.40
2019-06-01T01:56:43.343Z,9.50
2019-06-01T01:57:43.416Z,9.40
2019-06-01T01:58:43.316Z,8.60
2019-06-01T01:59:43.319Z,8.90
2019-06-01T02:00:43.257Z,8.90
2019-06-01T02:01:43.291Z,8.80
2019-06-01T02:02:43.372Z,9.50
2019-06-01T02:03:43.270Z,8.80
2019-06-01T02:04:43.257Z,9.60
2019-06-01T02:05:43.273Z,9.80
2019-06-01T02:06:43.238Z,8.70
2019-06-01T02:07:43.348Z,13.50
2019-06-01T02:08:43.220Z,9.70
2019-06-01T02:09:43.210Z,9.80
2019-06-01T02:10:43.189Z,10.30
2019-06-01T02:11:43.195Z,14.30
2019-06-01T02:12:43.173Z,9.00
2019-06-01T02:13:43.158Z,8.40
2019-06-01T02:14:43.111Z,9.80
2019-06-01T02:15:43.098Z,9.10
2019-06-01T02:16:43.127Z,9.50
2019-06-01T02:17:43.127Z,9.10
2019-06-01T02:18:43.178Z,10.80
2019-06-01T02:19:43.088Z,10.50
2019-06-01T02:20:43.078Z,10.20
2019-06-01T02:21:43.068Z,9.60
2019-06-01T02:22:43.070Z,11.30
2019-06-01T02:23:43.127Z,10.30
2019-06-01T02:24:43.039Z,9.30
2019-06-01T02:25:43.032Z,10.40
2019-06-01T02:26:43.019Z,9.70
2019-06-01T02:27:43.002Z,10.70
2019-06-01T02:28:42.959Z,9.70
2019-06-01T02:29:42.978Z,10.10
2019-06-01T02:30:43.043Z,9.90
2019-06-01T02:31:43.094Z,9.90
2019-06-01T02:32:42.960Z,9.80
2019-06-01T02:33:43.069Z,11.30
2019-06-01T02:34:42.929Z,9.80
2019-06-01T02:35:42.919Z,10.20
2019-06-01T02:36:42.901Z,10.60
2019-06-01T02:37:42.890Z,10.80
2019-06-01T02:38:43.005Z,10.80
2019-06-01T02:39:42.870Z,11.90
2019-06-01T02:40:42.850Z,10.50
2019-06-01T02:41:42.851Z,10.60
2019-06-01T02:42:42.840Z,11.90
2019-06-01T02:43:42.832Z,11.80
2019-06-01T02:44:42.784Z,11.10
2019-06-01T02:45:42.814Z,12.50
2019-06-01T02:46:42.798Z,12.00
2019-06-01T02:47:42.733Z,11.80
2019-06-01T02:48:42.771Z,11.80
2019-06-01T02:49:42.841Z,10.80
2019-06-01T02:50:42.751Z,11.00
2019-06-01T02:51:42.731Z,11.30
2019-06-01T02:52:42.756Z,11.90
2019-06-01T02:53:42.721Z,11.20
2019-06-01T02:54:42.742Z,10.70
2019-06-01T02:55:42.700Z,11.00
2019-06-01T02:56:42.649Z,11.80
2019-06-01T02:57:42.671Z,10.90
2019-06-01T02:58:42.718Z,11.00
2019-06-01T02:59:42.754Z,10.60
2019-06-01T03:00:42.601Z,11.00
2019-06-01T03:01:55.922Z,13.30
2019-06-01T03:02:43.621Z,10.40
2019-06-01T03:03:42.615Z,12.80
2019-06-01T03:04:42.560Z,10.50
2019-06-01T03:05:42.702Z,10.20
2019-06-01T03:06:42.587Z,12.00
2019-06-01T03:07:42.535Z,10.50
2019-06-01T03:08:42.564Z,11.70
2019-06-01T03:09:42.546Z,11.50
2019-06-01T03:10:42.653Z,10.80
2019-06-01T03:11:42.533Z,10.90
2019-06-01T03:12:42.518Z,10.90
2019-06-01T03:13:42.472Z,13.20
2019-06-01T03:14:42.482Z,12.50
2019-06-01T03:15:42.490Z,14.10
2019-06-01T03:16:42.482Z,12.00
2019-06-01T03:17:42.452Z,11.40
2019-06-01T03:18:42.513Z,12.20
2019-06-01T03:19:42.433Z,11.30
2019-06-01T03:20:42.382Z,16.10
2019-06-01T03:21:42.413Z,12.00
2019-06-01T03:22:42.402Z,11.50
2019-06-01T03:23:42.473Z,12.10
2019-06-01T03:24:42.462Z,11.80
2019-06-01T03:25:42.376Z,12.10
2019-06-01T03:26:42.369Z,12.60
2019-06-01T03:27:42.343Z,11.20
2019-06-01T03:28:42.342Z,13.30
2019-06-01T03:29:42.444Z,12.00
2019-06-01T03:30:45.482Z,11.10
2019-06-01T03:31:42.434Z,11.90
2019-06-01T03:32:42.297Z,12.60
2019-06-01T03:33:42.274Z,13.20
2019-06-01T03:34:42.408Z,12.70
2019-06-01T03:35:42.263Z,11.80
2019-06-01T03:36:42.323Z,11.10
2019-06-01T03:37:42.248Z,11.90
2019-06-01T03:38:42.237Z,12.80
2019-06-01T03:39:42.187Z,13.00
2019-06-01T03:40:42.154Z,12.40
2019-06-01T03:41:42.285Z,12.10
2019-06-01T03:42:42.204Z,12.30
2019-06-01T03:43:42.174Z,13.30
2019-06-01T03:44:42.169Z,12.40
2019-06-01T03:45:42.145Z,13.40
2019-06-01T03:46:42.218Z,12.50
2019-06-01T03:47:42.127Z,13.90
2019-06-01T03:48:42.121Z,13.40
2019-06-01T03:49:42.134Z,13.00
2019-06-01T03:50:42.095Z,13.80
2019-06-01T03:51:42.176Z,12.90
2019-06-01T03:52:42.064Z,12.50
2019-06-01T03:53:42.054Z,14.10
2019-06-01T03:54:42.044Z,14.90
2019-06-01T03:55:42.115Z,13.90
2019-06-01T03:56:42.030Z,13.60
2019-06-01T03:57:42.014Z,12.90
2019-06-01T03:58:42.006Z,12.40
2019-06-01T03:59:41.995Z,13.80
2019-06-01T04:00:41.999Z,13.90
2019-06-01T04:01:42.107Z,12.90
2019-06-01T04:02:41.969Z,13.40
2019-06-01T04:03:41.955Z,13.40
2019-06-01T04:04:41.935Z,13.00
2019-06-01T04:05:41.939Z,11.40
2019-06-01T04:06:41.907Z,12.70
2019-06-01T04:07:41.858Z,14.70
2019-06-01T04:08:41.966Z,12.50
2019-06-01T04:09:41.886Z,12.90
2019-06-01T04:10:41.880Z,13.40
2019-06-01T04:11:41.872Z,12.50
2019-06-01T04:12:41.946Z,12.50
2019-06-01T04:13:41.849Z,13.30
2019-06-01T04:14:41.826Z,11.90
2019-06-01T04:15:41.822Z,12.80
2019-06-01T04:16:41.910Z,12.30
2019-06-01T04:17:41.796Z,12.40
2019-06-01T04:18:41.883Z,12.00
2019-06-01T04:19:41.829Z,12.20
2019-06-01T04:20:41.744Z,11.70
2019-06-01T04:21:41.758Z,12.40
2019-06-01T04:22:41.817Z,12.20
2019-06-01T04:23:41.809Z,11.80
2019-06-01T04:24:41.730Z,13.70
2019-06-01T04:25:41.706Z,12.80
2019-06-01T04:26:41.705Z,11.50
2019-06-01T04:27:41.788Z,12.00
2019-06-01T04:28:41.680Z,11.90
2019-06-01T04:29:41.749Z,12.00
2019-06-01T04:30:41.657Z,11.90
2019-06-01T04:31:41.638Z,10.70
2019-06-01T04:32:49.884Z,12.70
2019-06-01T04:33:42.726Z,11.90
2019-06-01T04:34:41.622Z,11.00
2019-06-01T04:35:41.679Z,12.60
2019-06-01T04:36:41.598Z,10.80
2019-06-01T04:37:41.593Z,11.40
2019-06-01T04:38:41.574Z,11.00
2019-06-01T04:39:41.557Z,10.80
2019-06-01T04:40:41.568Z,11.00
2019-06-01T04:41:41.645Z,12.40
2019-06-01T04:42:41.530Z,12.40
2019-06-01T04:43:41.500Z,11.80
2019-06-01T04:44:41.626Z,12.40
2019-06-01T04:45:41.470Z,11.10
2019-06-01T04:46:41.478Z,11.20
2019-06-01T04:47:41.485Z,11.10
2019-06-01T04:48:41.588Z,10.60
2019-06-01T04:49:41.429Z,12.20
2019-06-01T04:50:41.429Z,12.30
2019-06-01T04:51:41.428Z,11.00
2019-06-01T04:52:41.419Z,12.60
2019-06-01T04:53:41.489Z,12.70
2019-06-01T04:54:41.399Z,11.50
2019-06-01T04:55:41.509Z,12.10
2019-06-01T04:56:41.332Z,10.90
2019-06-01T04:57:41.361Z,12.20
2019-06-01T04:58:41.362Z,11.50
2019-06-01T04:59:41.340Z,10.50
2019-06-01T05:00:41.341Z,11.40
2019-06-01T05:01:41.321Z,11.90
2019-06-01T05:02:41.310Z,11.20
2019-06-01T05:03:41.301Z,14.10
2019-06-01T05:04:43.531Z,11.70
2019-06-01T05:05:41.400Z,15.00
2019-06-01T05:06:41.382Z,12.00
2019-06-01T05:07:41.251Z,10.90
2019-06-01T05:08:41.242Z,12.70
2019-06-01T05:09:41.232Z,12.00
2019-06-01T05:10:41.226Z,10.40
2019-06-01T05:11:41.312Z,11.50
2019-06-01T05:12:41.162Z,12.60
2019-06-01T05:13:41.192Z,12.80
2019-06-01T05:14:41.196Z,10.30
2019-06-01T05:15:41.172Z,13.80
2019-06-01T05:16:41.233Z,10.60
2019-06-01T05:17:41.153Z,10.30
2019-06-01T05:18:41.137Z,10.40
2019-06-01T05:19:41.133Z,11.00
2019-06-01T05:20:41.119Z,10.50
2019-06-01T05:21:41.152Z,10.70
2019-06-01T05:22:41.093Z,10.20
2019-06-01T05:23:41.163Z,9.40
2019-06-01T05:24:41.039Z,11.10
2019-06-01T05:25:41.066Z,12.80
2019-06-01T05:26:41.163Z,10.30
2019-06-01T05:27:41.126Z,9.40
2019-06-01T05:28:41.167Z,10.50
2019-06-01T05:29:41.024Z,11.20
2019-06-01T05:30:41.004Z,12.60
2019-06-01T05:31:40.994Z,12.60
2019-06-01T05:32:40.945Z,10.00
2019-06-01T05:33:40.975Z,10.40
2019-06-01T05:34:41.095Z,9.90
2019-06-01T05:35:40.955Z,10.30
2019-06-01T05:36:40.969Z,11.20
2019-06-01T05:37:41.048Z,10.20
2019-06-01T05:38:41.055Z,12.00
2019-06-01T05:39:40.906Z,12.40
2019-06-01T05:40:40.896Z,10.10
2019-06-01T05:41:40.846Z,10.40
2019-06-01T05:42:41.020Z,9.20
2019-06-01T05:43:40.866Z,9.40
2019-06-01T05:44:40.855Z,9.50
2019-06-01T05:45:40.846Z,9.40
2019-06-01T05:46:40.847Z,10.10
2019-06-01T05:47:40.819Z,13.10
2019-06-01T05:48:40.890Z,10.40
2019-06-01T05:49:40.796Z,9.10
2019-06-01T05:50:40.787Z,8.80
2019-06-01T05:51:40.777Z,9.60
2019-06-01T05:52:40.857Z,9.60
2019-06-01T05:53:40.888Z,9.20
2019-06-01T05:54:40.707Z,9.00
2019-06-01T05:55:40.737Z,9.30
2019-06-01T05:56:40.718Z,9.60
2019-06-01T05:57:40.668Z,9.30
2019-06-01T05:58:40.778Z,9.30
2019-06-01T05:59:40.649Z,8.90
2019-06-01T06:00:40.682Z,11.40
2019-06-01T06:01:40.679Z,9.70
2019-06-01T06:02:40.661Z,8.80
2019-06-01T06:03:40.933Z,9.50
2019-06-01T06:04:40.638Z,8.30
2019-06-01T06:05:40.629Z,7.30
2019-06-01T06:06:40.582Z,8.80
2019-06-01T06:07:47.129Z,7.50
2019-06-01T06:08:40.729Z,7.20
2019-06-01T06:09:40.611Z,8.20
2019-06-01T06:10:40.570Z,7.40
2019-06-01T06:11:40.560Z,7.30
2019-06-01T06:12:40.552Z,9.30
2019-06-01T06:13:40.610Z,8.90
2019-06-01T06:14:40.539Z,7.00
2019-06-01T06:15:40.521Z,7.30
2019-06-01T06:16:40.471Z,8.20
2019-06-01T06:17:40.490Z,7.40
2019-06-01T06:18:40.497Z,7.80
2019-06-01T06:19:40.611Z,9.40
2019-06-01T06:20:40.461Z,9.80
2019-06-01T06:21:40.451Z,8.80
2019-06-01T06:22:41.248Z,9.40
2019-06-01T06:23:40.535Z,7.40
2019-06-01T06:24:40.546Z,10.00
2019-06-01T06:25:41.482Z,8.20
2019-06-01T06:26:40.404Z,7.20
2019-06-01T06:27:40.396Z,7.90
2019-06-01T06:28:40.373Z,8.80
2019-06-01T06:29:40.333Z,7.70
2019-06-01T06:30:40.314Z,9.00
2019-06-01T06:31:40.344Z,8.50
2019-06-01T06:32:40.324Z,9.00
2019-06-01T06:33:55.155Z,8.30
2019-06-01T06:34:41.385Z,8.80
2019-06-01T06:35:40.306Z,9.80
2019-06-01T06:36:40.298Z,8.10
2019-06-01T06:37:42.355Z,7.30
2019-06-01T06:38:40.275Z,7.30
2019-06-01T06:39:40.325Z,8.20
2019-06-01T06:40:40.246Z,9.90
2019-06-01T06:41:40.236Z,7.00
2019-06-01T06:42:40.223Z,11.30
2019-06-01T06:43:40.215Z,8.10
2019-06-01T06:44:40.277Z,7.60
2019-06-01T06:45:40.274Z,8.70
2019-06-01T06:46:40.186Z,7.40
2019-06-01T06:47:40.167Z,7.40
2019-06-01T06:48:40.169Z,6.80
2019-06-01T06:49:40.157Z,7.10
2019-06-01T06:50:40.170Z,7.20
2019-06-01T06:51:40.128Z,7.50
2019-06-01T06:52:40.120Z,6.70
2019-06-01T06:53:40.111Z,7.80
2019-06-01T06:54:40.089Z,8.80
2019-06-01T06:55:40.219Z,6.60
2019-06-01T06:56:40.179Z,9.00
2019-06-01T06:57:40.142Z,6.80
2019-06-01T06:58:40.072Z,6.90
2019-06-01T06:59:40.053Z,6.60
2019-06-01T07:00:40.003Z,6.50
2019-06-01T07:01:40.021Z,6.00
2019-06-01T07:02:39.989Z,7.30
2019-06-01T07:03:39.961Z,6.00
2019-06-01T07:04:39.998Z,7.70
2019-06-01T07:05:39.994Z,7.60
2019-06-01T07:06:40.123Z,5.50
2019-06-01T07:07:39.912Z,7.20
2019-06-01T07:08:39.942Z,7.80
2019-06-01T07:09:39.949Z,7.00
2019-06-01T07:10:39.923Z,7.40
2019-06-01T07:11:40.049Z,8.30
2019-06-01T07:12:39.905Z,6.50
2019-06-01T07:13:39.906Z,6.20
2019-06-01T07:14:39.885Z,7.40
2019-06-01T07:15:39.883Z,5.60
2019-06-01T07:16:39.979Z,8.30
2019-06-01T07:17:39.865Z,9.20
2019-06-01T07:18:39.844Z,11.00
2019-06-01T07:19:39.939Z,6.70
2019-06-01T07:20:39.825Z,8.60
2019-06-01T07:21:39.910Z,6.10
2019-06-01T07:22:39.784Z,9.30
2019-06-01T07:23:39.933Z,6.00
2019-06-01T07:24:39.789Z,8.70
2019-06-01T07:25:39.762Z,6.70
2019-06-01T07:26:39.890Z,5.70
2019-06-01T07:27:39.743Z,7.80
2019-06-01T07:28:39.728Z,10.50
2019-06-01T07:29:39.727Z,6.90
2019-06-01T07:30:49.617Z,7.20
2019-06-01T07:31:40.779Z,5.70
2019-06-01T07:32:39.691Z,7.70
2019-06-01T07:33:39.678Z,8.10
2019-06-01T07:34:42.520Z,6.40
2019-06-01T07:35:39.659Z,6.10
2019-06-01T07:36:39.650Z,6.10
2019-06-01T07:37:39.734Z,7.30
2019-06-01T07:38:39.642Z,5.90
2019-06-01T07:39:39.614Z,5.30
2019-06-01T07:40:39.682Z,8.80
2019-06-01T07:41:39.593Z,6.00
2019-06-01T07:42:39.662Z,7.00
2019-06-01T07:43:39.649Z,5.50
2019-06-01T07:44:39.559Z,7.20
2019-06-01T07:45:39.515Z,8.00
2019-06-01T07:46:39.531Z,8.20
2019-06-01T07:47:39.615Z,6.50
2019-06-01T07:48:39.513Z,6.20
2019-06-01T07:49:39.507Z,5.20
2019-06-01T07:50:39.483Z,5.90
2019-06-01T07:51:39.574Z,5.30
2019-06-01T07:52:39.435Z,5.80
2019-06-01T07:53:39.479Z,4.40
2019-06-01T07:54:39.454Z,4.00
2019-06-01T07:55:39.448Z,4.30
2019-06-01T07:56:39.505Z,6.50
2019-06-01T07:57:43.201Z,4.60
2019-06-01T07:58:39.407Z,6.70
2019-06-01T07:59:39.357Z,5.90
2019-06-01T08:00:39.476Z,4.30
2019-06-01T08:01:39.392Z,3.70
2019-06-01T08:02:39.488Z,3.70
2019-06-01T08:03:39.360Z,4.50
2019-06-01T08:04:52.583Z,4.70
2019-06-01T08:05:40.339Z,4.30
2019-06-01T08:06:45.155Z,2.60
2019-06-01T08:07:40.440Z,4.40
2019-06-01T08:08:39.309Z,4.40
2019-06-01T08:09:39.298Z,4.60
2019-06-01T08:10:39.419Z,6.70
2019-06-01T08:11:39.279Z,3.20
2019-06-01T08:12:39.220Z,4.70
2019-06-01T08:13:39.343Z,2.80
2019-06-01T08:14:39.201Z,2.50
2019-06-01T08:15:39.245Z,3.50
2019-06-01T08:16:39.182Z,4.50
2019-06-01T08:17:39.205Z,5.30
2019-06-01T08:18:39.239Z,3.00
2019-06-01T08:19:39.322Z,2.70
2019-06-01T08:20:39.302Z,4.00
2019-06-01T08:21:39.172Z,3.70
2019-06-01T08:22:39.165Z,4.30
2019-06-01T08:23:39.154Z,3.30
2019-06-01T08:24:39.244Z,4.50
2019-06-01T08:25:39.144Z,4.90
2019-06-01T08:26:39.197Z,3.30
2019-06-01T08:27:39.105Z,5.10
2019-06-01T08:28:39.046Z,4.60
2019-06-01T08:29:39.142Z,4.00
2019-06-01T08:30:39.080Z,2.70
2019-06-01T08:31:39.177Z,6.00
2019-06-01T08:32:39.067Z,3.80
2019-06-01T08:33:39.037Z,3.30
2019-06-01T08:34:39.027Z,3.50
2019-06-01T08:35:39.018Z,3.30
2019-06-01T08:36:39.098Z,3.80
2019-06-01T08:37:39.008Z,4.30
2019-06-01T08:38:38.998Z,3.70
2019-06-01T08:39:38.988Z,5.00
2019-06-01T08:40:38.969Z,3.60
2019-06-01T08:41:39.089Z,3.10
2019-06-01T08:42:38.953Z,4.50
2019-06-01T08:43:38.949Z,2.80
2019-06-01T08:44:38.942Z,3.10
2019-06-01T08:45:38.923Z,3.80
2019-06-01T08:46:39.041Z,3.10
2019-06-01T08:47:38.899Z,3.40
2019-06-01T08:48:38.893Z,2.60
2019-06-01T08:49:38.875Z,3.30
2019-06-01T08:50:38.882Z,2.70
2019-06-01T08:51:38.825Z,2.40
2019-06-01T08:52:38.964Z,2.50
2019-06-01T08:53:38.846Z,2.40
2019-06-01T08:54:38.837Z,2.60
2019-06-01T08:55:38.813Z,2.80
2019-06-01T08:56:38.903Z,3.60
2019-06-01T08:57:38.798Z,3.20
2019-06-01T08:58:38.787Z,3.30
2019-06-01T08:59:38.784Z,3.60
2019-06-01T09:00:38.766Z,2.60
2019-06-01T09:01:39.109Z,2.10
2019-06-01T09:02:38.816Z,3.60
2019-06-01T09:03:45.449Z,3.00
2019-06-01T09:04:39.728Z,2.70
2019-06-01T09:05:38.708Z,3.50
2019-06-01T09:06:38.709Z,3.60
2019-06-01T09:07:39.089Z,3.20
2019-06-01T09:08:38.680Z,3.70
2019-06-01T09:09:38.629Z,2.70
2019-06-01T09:10:38.630Z,3.60
2019-06-01T09:11:38.651Z,5.80
2019-06-01T09:12:38.639Z,2.80
2019-06-01T09:13:38.752Z,2.30
2019-06-01T09:14:38.635Z,3.50
2019-06-01T09:15:38.612Z,2.70
2019-06-01T09:16:38.729Z,2.10
2019-06-01T09:17:38.590Z,2.40
2019-06-01T09:18:38.665Z,3.10
2019-06-01T09:19:38.602Z,3.00
2019-06-01T09:20:38.979Z,3.60
2019-06-01T09:21:38.664Z,2.50
2019-06-01T09:22:38.622Z,2.10
2019-06-01T09:23:38.666Z,6.10
2019-06-01T09:24:38.536Z,2.30
2019-06-01T09:25:38.514Z,3.40
2019-06-01T09:26:38.509Z,3.50
2019-06-01T09:27:38.498Z,3.60
2019-06-01T09:28:38.635Z,3.40
2019-06-01T09:29:38.557Z,2.90
2019-06-01T09:30:38.477Z,1.90
2019-06-01T09:31:38.446Z,3.40
2019-06-01T09:32:38.387Z,3.50
2019-06-01T09:33:38.431Z,2.20
2019-06-01T09:34:38.552Z,2.40
2019-06-01T09:35:52.751Z,5.00
2019-06-01T09:36:39.403Z,2.30
2019-06-01T09:37:38.390Z,2.80
2019-06-01T09:38:38.379Z,2.90
2019-06-01T09:39:38.502Z,3.50
2019-06-01T09:40:38.362Z,3.00
2019-06-01T09:41:38.304Z,4.20
2019-06-01T09:42:38.330Z,2.30
2019-06-01T09:43:38.293Z,1.90
2019-06-01T09:44:38.311Z,2.40
2019-06-01T09:45:38.438Z,2.40
2019-06-01T09:46:38.292Z,4.00
2019-06-01T09:47:38.242Z,3.00
2019-06-01T09:48:38.279Z,3.60
2019-06-01T09:49:38.392Z,2.90
2019-06-01T09:50:38.257Z,2.40
2019-06-01T09:51:38.245Z,2.30
2019-06-01T09:52:38.257Z,3.30
2019-06-01T09:53:38.225Z,4.10
2019-06-01T09:54:38.217Z,3.50
2019-06-01T09:55:38.485Z,3.70
2019-06-01T09:56:39.802Z,4.60
2019-06-01T09:57:38.440Z,3.30
2019-06-01T09:58:38.864Z,3.40
2019-06-01T09:59:38.244Z,2.60
2019-06-01T10:00:42.082Z,3.00
2019-06-01T10:01:39.140Z,3.60
2019-06-01T10:02:38.374Z,3.80
2019-06-01T10:03:38.562Z,4.10
2019-06-01T10:04:38.829Z,3.80
2019-06-01T10:05:38.578Z,4.00
2019-06-01T10:06:38.717Z,3.10
2019-06-01T10:07:39.320Z,3.30
2019-06-01T10:08:38.223Z,6.10
2019-06-01T10:09:38.080Z,3.70
2019-06-01T10:10:38.148Z,3.30
2019-06-01T10:11:38.198Z,2.70
2019-06-01T10:12:38.279Z,3.30
2019-06-01T10:13:38.403Z,3.30
2019-06-01T10:14:39.337Z,2.90
2019-06-01T10:15:38.543Z,3.90
2019-06-01T10:16:38.908Z,3.00
2019-06-01T10:17:39.077Z,2.80
2019-06-01T10:18:39.026Z,3.30
2019-06-01T10:19:38.901Z,3.20
2019-06-01T10:20:39.105Z,3.50
2019-06-01T10:21:38.092Z,2.90
2019-06-01T10:22:39.378Z,2.60
2019-06-01T10:23:38.453Z,2.90
2019-06-01T10:24:39.189Z,2.00
2019-06-01T10:25:38.548Z,2.70
2019-06-01T10:26:37.896Z,2.80
2019-06-01T10:27:38.679Z,3.20
2019-06-01T10:28:37.969Z,4.20
2019-06-01T10:29:39.934Z,3.00
2019-06-01T10:30:37.955Z,3.70
2019-06-01T10:31:41.021Z,2.90
2019-06-01T10:32:38.179Z,2.70
2019-06-01T10:33:38.940Z,2.90
2019-06-01T10:34:37.824Z,3.20
2019-06-01T10:35:38.952Z,5.80
2019-06-01T10:36:38.084Z,3.20
2019-06-01T10:37:37.899Z,3.60
2019-06-01T10:38:37.850Z,3.50
2019-06-01T10:39:37.771Z,4.60
2019-06-01T10:40:37.760Z,5.30
2019-06-01T10:41:37.743Z,3.20
2019-06-01T10:42:38.082Z,5.20
2019-06-01T10:43:37.783Z,3.00
2019-06-01T10:44:41.499Z,4.00
2019-06-01T10:45:39.867Z,4.60
2019-06-01T10:46:38.038Z,3.40
2019-06-01T10:47:38.225Z,3.00
2019-06-01T10:48:38.078Z,4.00
2019-06-01T10:49:38.027Z,3.10
2019-06-01T10:50:38.498Z,2.60
2019-06-01T10:51:38.261Z,2.80
2019-06-01T10:52:38.386Z,3.30
2019-06-01T10:53:38.205Z,3.30
2019-06-01T10:54:38.327Z,4.10
2019-06-01T10:55:38.416Z,5.30
2019-06-01T10:56:38.500Z,3.40
2019-06-01T10:57:38.505Z,3.80
2019-06-01T10:58:54.771Z,4.40
2019-06-01T10:59:38.702Z,4.20
2019-06-01T11:00:45.477Z,3.70
2019-06-01T11:01:38.889Z,4.60
2019-06-01T11:02:38.838Z,6.10
2019-06-01T11:03:38.672Z,4.00
2019-06-01T11:04:38.845Z,4.90
2019-06-01T11:05:38.758Z,3.10
2019-06-01T11:06:43.333Z,4.20
2019-06-01T11:07:39.031Z,5.30
2019-06-01T11:08:38.926Z,4.50
2019-06-01T11:09:37.550Z,2.90
2019-06-01T11:10:37.470Z,5.30
2019-06-01T11:11:37.411Z,3.00
2019-06-01T11:12:37.440Z,3.90
2019-06-01T11:13:37.432Z,4.00
2019-06-01T11:14:37.531Z,4.40
2019-06-01T11:15:37.544Z,4.70
2019-06-01T11:16:37.416Z,2.30
2019-06-01T11:17:37.413Z,2.50
2019-06-01T11:18:37.540Z,3.70
2019-06-01T11:19:37.497Z,2.80
2019-06-01T11:20:37.376Z,2.20
2019-06-01T11:21:37.498Z,3.20
2019-06-01T11:22:37.576Z,2.50
2019-06-01T11:23:37.550Z,3.20
2019-06-01T11:24:37.504Z,2.40
2019-06-01T11:25:37.606Z,5.00
2019-06-01T11:26:37.653Z,2.20
2019-06-01T11:27:37.772Z,1.90
2019-06-01T11:28:38.202Z,2.00
2019-06-01T11:29:42.956Z,1.90
2019-06-01T11:30:38.268Z,2.30
2019-06-01T11:31:38.312Z,1.80
2019-06-01T11:32:39.536Z,2.40
2019-06-01T11:33:38.186Z,1.80
2019-06-01T11:34:38.409Z,2.80
2019-06-01T11:35:37.275Z,2.60
2019-06-01T11:36:56.842Z,2.20
2019-06-01T11:37:38.522Z,2.60
2019-06-01T11:38:38.341Z,1.80
2019-06-01T11:39:38.407Z,3.40
2019-06-01T11:40:38.514Z,2.10
2019-06-01T11:41:38.277Z,2.40
2019-06-01T11:42:37.211Z,1.90
2019-06-01T11:43:38.516Z,2.50
2019-06-01T11:44:37.132Z,3.00
2019-06-01T11:45:37.122Z,3.10
2019-06-01T11:46:37.197Z,3.10
2019-06-01T11:47:37.123Z,2.30
2019-06-01T11:48:37.255Z,2.20
2019-06-01T11:49:37.213Z,3.30
2019-06-01T11:50:37.094Z,2.30
2019-06-01T11:51:37.144Z,2.40
2019-06-01T11:52:37.203Z,2.50
2019-06-01T11:53:37.422Z,2.40
2019-06-01T11:54:37.111Z,2.40
2019-06-01T11:55:37.101Z,3.20
2019-06-01T11:56:37.267Z,2.00
2019-06-01T11:57:37.495Z,2.20
2019-06-01T11:58:37.234Z,2.00
2019-06-01T11:59:37.276Z,2.60
2019-06-01T12:00:37.563Z,2.20
2019-06-01T12:01:37.743Z,2.00
2019-06-01T12:02:37.484Z,4.20
2019-06-01T12:03:37.666Z,2.10
2019-06-01T12:04:37.861Z,2.00
2019-06-01T12:05:37.877Z,1.90
2019-06-01T12:06:37.793Z,2.50
2019-06-01T12:07:37.691Z,2.00
2019-06-01T12:08:38.043Z,1.90
2019-06-01T12:09:37.719Z,1.80
2019-06-01T12:10:36.881Z,1.90
2019-06-01T12:11:37.869Z,2.40
2019-06-01T12:12:38.099Z,3.00
2019-06-01T12:13:38.012Z,2.40
2019-06-01T12:14:38.319Z,2.20
2019-06-01T12:15:38.277Z,2.60
2019-06-01T12:16:36.823Z,2.60
2019-06-01T12:17:36.904Z,3.10
2019-06-01T12:18:36.763Z,2.80
2019-06-01T12:19:36.795Z,2.80
2019-06-01T12:20:36.786Z,2.60
2019-06-01T12:21:37.121Z,2.90
2019-06-01T12:22:36.820Z,1.90
2019-06-01T12:23:37.346Z,1.90
2019-06-01T12:24:36.944Z,3.50
2019-06-01T12:25:38.106Z,2.80
2019-06-01T12:26:37.259Z,2.20
2019-06-01T12:27:37.312Z,3.10
2019-06-01T12:28:37.539Z,3.30
2019-06-01T12:29:37.426Z,3.00
2019-06-01T12:30:37.520Z,3.00
2019-06-01T12:31:37.674Z,2.50
2019-06-01T12:32:37.851Z,2.80
2019-06-01T12:33:37.960Z,2.40
2019-06-01T12:34:37.989Z,2.50
2019-06-01T12:35:37.816Z,3.10
2019-06-01T12:36:38.775Z,2.60
2019-06-01T12:37:55.993Z,2.40
2019-06-01T12:38:37.913Z,1.80
2019-06-01T12:39:36.631Z,2.50
2019-06-01T12:40:36.575Z,1.60
2019-06-01T12:41:36.642Z,2.10
2019-06-01T12:42:36.585Z,1.40
2019-06-01T12:43:36.675Z,1.50
2019-06-01T12:44:36.553Z,2.10
2019-06-01T12:45:36.543Z,3.10
2019-06-01T12:46:36.546Z,2.40
2019-06-01T12:47:36.524Z,2.30
2019-06-01T12:48:36.474Z,1.50
2019-06-01T12:49:36.584Z,2.00
2019-06-01T12:50:36.455Z,2.80
2019-06-01T12:51:36.494Z,1.50
2019-06-01T12:52:36.479Z,1.40
2019-06-01T12:53:36.546Z,2.10
2019-06-01T12:54:36.429Z,1.40
2019-06-01T12:55:36.566Z,1.90
2019-06-01T12:56:36.447Z,1.50
2019-06-01T12:57:36.437Z,2.30
2019-06-01T12:58:36.430Z,1.80
2019-06-01T12:59:36.532Z,1.50
2019-06-01T13:00:36.397Z,1.70
2019-06-01T13:01:36.398Z,2.00
2019-06-01T13:02:36.382Z,1.50
2019-06-01T13:03:36.370Z,3.10
2019-06-01T13:04:36.459Z,1.60
2019-06-01T13:05:36.373Z,1.30
2019-06-01T13:06:36.348Z,2.10
2019-06-01T13:07:50.943Z,2.80
2019-06-01T13:08:37.332Z,2.00
2019-06-01T13:09:36.321Z,1.90
2019-06-01T13:10:36.432Z,1.70
2019-06-01T13:11:36.314Z,2.20